Pleasant Hall, Pennsylvania
Current Conditions -  °F | °C
As of 10:53 PM on Sunday 23 Nov 2014 (Local Time) from KHGR Reporting Station
Light Rain Light Rain  
Wind Chill: 50°   Ceiling: 800
Heat Index: 50°   Visibility: 4mi
Dew Point: 48°   Wind: 5mph
Humidity: 93%   Direction: 130°SE
Pressure: 29.83"   Gusts: NA
Location:  40.05°N, 77.65°W
Report Text: KHGR 240353Z 13004KT 4SM -RA BR OVC008 10/09 A2983 RMK AO2 CIG 006V011 PRESFR SLP112 P0005 T01000089
Loading
Personal Weather Stations






























Interactive Weather Map New forecast layout! Learn more

10-Day Weather Forecast

Advertisements
Track Severe Weather on mobile